Time;durP1;ratioP1;P1;durP2;ratioP2;P2;SDS_P1;SDS_P2;PMS_P1;PMS_P2;Temp;Humidity;BMP_temperature;BMP_pressure;BME280_temperature;BME280_humidity;BME280_pressure;Samples;Min_cycle;Max_cycle;Signal;HPM_P1;HPM_P2
2023/03/15 00:00:11;;;;;;;2.72;2.63;;;;;;;1.79;100.00;100697.97;6055288;23;20030;-69
2023/03/15 00:02:38;;;;;;;3.30;3.00;;;;;;;1.83;100.00;100721.25;6028461;23;20107;-68
2023/03/15 00:05:05;;;;;;;3.65;3.35;;;;;;;1.39;100.00;100653.78;6059232;23;20088;-69
2023/03/15 00:07:31;;;;;;;3.00;2.90;;;;;;;1.96;100.00;100744.28;6030403;23;20056;-69
2023/03/15 00:09:58;;;;;;;14.15;3.33;;;;;;;2.08;100.00;100743.22;6050623;23;20029;-69
2023/03/15 00:12:24;;;;;;;3.10;3.00;;;;;;;2.13;100.00;100780.28;6056816;23;20059;-69
2023/03/15 00:14:51;;;;;;;3.10;2.90;;;;;;;1.68;100.00;100683.50;6025654;23;20034;-69
2023/03/15 00:17:17;;;;;;;2.70;2.60;;;;;;;2.32;100.00;100785.13;6053331;23;20058;-70
2023/03/15 00:19:44;;;;;;;13.40;2.95;;;;;;;2.35;100.00;100792.88;6036095;23;20019;-68
2023/03/15 00:22:10;;;;;;;3.60;3.30;;;;;;;2.21;100.00;100771.53;6052020;23;20033;-68
2023/03/15 00:24:36;;;;;;;3.70;3.50;;;;;;;2.39;100.00;100797.97;6026232;23;20033;-68
2023/03/15 00:27:05;;;;;;;3.33;3.13;;;;;;;2.44;100.00;100776.31;6052472;23;20060;-69
2023/03/15 00:29:32;;;;;;;8.27;3.10;;;;;;;2.59;100.00;100797.63;6043059;23;20030;-69
2023/03/15 00:31:58;;;;;;;6.43;3.40;;;;;;;2.59;100.00;100796.78;6050291;23;20030;-69
2023/03/15 00:34:25;;;;;;;3.22;3.03;;;;;;;2.63;100.00;100795.00;6030298;23;20039;-69
2023/03/15 00:36:52;;;;;;;3.90;3.53;;;;;;;2.64;100.00;100794.94;6055706;23;20321;-69
2023/03/15 00:39:19;;;;;;;4.03;3.50;;;;;;;2.58;100.00;100784.69;6038308;23;20031;-69
2023/03/15 00:41:46;;;;;;;3.00;2.88;;;;;;;2.66;100.00;100805.28;6051960;23;21700;-69
2023/03/15 00:44:12;;;;;;;5.68;3.92;;;;;;;2.17;100.00;100742.25;6026167;23;20027;-69
2023/03/15 00:46:39;;;;;;;3.78;3.58;;;;;;;1.86;100.00;100678.03;6054224;23;20096;-69
2023/03/15 00:49:06;;;;;;;3.72;3.53;;;;;;;2.52;100.00;100793.41;6041613;23;20015;-67
2023/03/15 00:51:32;;;;;;;3.85;3.58;;;;;;;2.58;100.00;100808.84;6028225;23;20043;-67
2023/03/15 00:53:59;;;;;;;3.53;3.22;;;;;;;2.62;100.00;100811.41;6059870;23;20034;-67
2023/03/15 00:56:28;;;;;;;4.10;3.80;;;;;;;1.89;100.00;100682.31;6047052;23;20655;-67
2023/03/15 00:58:56;;;;;;;3.20;3.05;;;;;;;2.28;100.00;100767.94;6037714;23;20695;-67
2023/03/15 01:01:26;;;;;;;4.05;3.83;;;;;;;2.64;100.00;100822.59;6053966;23;20924;-67
2023/03/15 01:03:53;;;;;;;3.80;3.55;;;;;;;2.70;100.00;100825.06;6066304;23;20079;-67
2023/03/15 01:06:25;;;;;;;3.60;3.40;;;;;;;2.70;100.00;100828.50;6029980;23;20029;-67
2023/03/15 01:08:53;;;;;;;3.63;3.42;;;;;;;2.68;100.00;100819.06;6029609;23;20018;-67
2023/03/15 01:11:23;;;;;;;3.35;3.22;;;;;;;2.56;100.00;100808.03;6025921;23;21062;-68
2023/03/15 01:13:51;;;;;;;3.70;3.55;;;;;;;2.23;100.00;100767.19;6055064;23;20040;-67
2023/03/15 01:16:18;;;;;;;6.07;3.80;;;;;;;2.27;100.00;100805.94;6030384;23;20053;-67
2023/03/15 01:18:44;;;;;;;3.45;3.25;;;;;;;2.02;100.00;100726.97;6031570;23;20094;-67
2023/03/15 01:21:13;;;;;;;3.25;3.15;;;;;;;2.36;100.00;100803.19;6055161;23;20001;-68
2023/03/15 01:23:40;;;;;;;4.93;3.53;;;;;;;2.31;100.00;100807.59;6053890;23;20623;-67
2023/03/15 01:26:11;;;;;;;3.50;3.40;;;;;;;2.09;100.00;100778.59;6028005;23;20650;-67
2023/03/15 01:28:38;;;;;;;3.80;3.60;;;;;;;2.33;100.00;100815.34;6047046;23;20035;-67
2023/03/15 01:31:04;;;;;;;4.35;4.05;;;;;;;1.10;100.00;100642.16;6053316;23;20026;-67
2023/03/15 01:33:30;;;;;;;3.25;3.05;;;;;;;2.35;100.00;100823.94;6051272;23;20037;-67
2023/03/15 01:36:02;;;;;;;2.80;2.70;;;;;;;2.37;100.00;100817.00;6035802;23;20054;-67
2023/03/15 01:38:29;;;;;;;3.88;3.67;;;;;;;2.21;100.00;100785.31;6029377;23;20029;-68
2023/03/15 01:40:56;;;;;;;7.68;4.55;;;;;;;2.51;100.00;100838.34;6030599;23;20085;-67
2023/03/15 01:43:27;;;;;;;2.80;2.70;;;;;;;2.15;100.00;100780.25;6049292;23;20035;-67
2023/03/15 01:46:06;;;;;;;3.40;3.20;;;;;;;2.50;100.00;100841.81;6023316;23;20030;-67
2023/03/15 01:48:43;;;;;;;3.33;3.17;;;;;;;1.94;100.00;100753.81;6052440;23;20289;-67
2023/03/15 01:51:37;;;;;;;3.38;3.28;;;;;;;2.34;100.00;100841.19;6031896;23;20073;-67
2023/03/15 01:54:09;;;;;;;3.42;3.22;;;;;;;2.37;100.00;100843.75;6054803;23;20041;-67
2023/03/15 01:56:40;;;;;;;3.50;3.30;;;;;;;2.08;100.00;100823.47;6028384;23;20028;-67
2023/03/15 01:59:20;;;;;;;2.80;2.70;;;;;;;2.25;100.00;100858.63;6056387;23;20045;-68
2023/03/15 02:01:47;;;;;;;3.05;2.95;;;;;;;1.44;100.00;100721.78;6032768;23;20014;-68
2023/03/15 02:04:23;;;;;;;4.03;3.30;;;;;;;2.03;100.00;100842.56;6050990;23;20033;-67
2023/03/15 02:06:58;;;;;;;4.97;3.20;;;;;;;1.55;100.00;100763.03;6025907;23;20037;-67
2023/03/15 02:09:43;;;;;;;2.90;2.80;;;;;;;1.94;100.00;100836.63;6048703;23;20018;-68
2023/03/15 02:12:10;;;;;;;2.60;2.50;;;;;;;1.56;100.00;100796.66;6029084;23;20394;-68
2023/03/15 02:14:38;;;;;;;2.67;2.58;;;;;;;1.84;100.00;100834.19;6027104;23;20655;-68
2023/03/15 02:17:04;;;;;;;3.88;3.65;;;;;;;1.38;100.00;100795.16;6022366;23;20282;-67
2023/03/15 02:19:38;;;;;;;2.80;2.70;;;;;;;1.64;100.00;100835.31;6051432;23;20089;-67
2023/03/15 02:22:21;;;;;;;2.75;2.65;;;;;;;1.70;100.00;100827.47;6024902;23;20010;-67
2023/03/15 02:24:57;;;;;;;2.97;2.78;;;;;;;1.64;100.00;100824.97;6004194;23;20623;-67
2023/03/15 02:27:33;;;;;;;3.13;2.92;;;;;;;1.72;100.00;100827.47;6055381;23;20064;-67
2023/03/15 02:30:02;;;;;;;2.97;2.83;;;;;;;1.68;100.00;100828.38;6026757;23;20022;-67
2023/03/15 02:32:29;;;;;;;3.08;2.97;;;;;;;1.55;100.00;100822.53;6048928;23;20030;-67
2023/03/15 02:34:56;;;;;;;2.85;2.75;;;;;;;1.33;100.00;100788.31;6047405;23;20060;-67
2023/03/15 02:37:25;;;;;;;2.80;2.70;;;;;;;0.81;100.00;100732.94;6021112;23;20117;-67
2023/03/15 02:39:52;;;;;;;3.30;3.20;;;;;;;0.94;100.00;100733.66;6034348;23;20055;-68
2023/03/15 02:42:19;;;;;;;3.65;3.38;;;;;;;1.06;100.00;100759.34;6052760;23;20034;-67
2023/03/15 02:44:47;;;;;;;3.10;3.00;;;;;;;0.77;100.00;100731.28;6035551;23;20677;-66
2023/03/15 02:47:24;;;;;;;2.92;2.83;;;;;;;1.16;100.00;100812.66;6054288;23;20022;-67
2023/03/15 02:49:52;;;;;;;3.17;2.97;;;;;;;1.41;100.00;100824.44;6057490;23;20042;-68
2023/03/15 02:52:20;;;;;;;2.90;2.80;;;;;;;1.08;100.00;100773.09;6026948;23;20109;-67
2023/03/15 02:54:47;;;;;;;3.28;3.15;;;;;;;1.46;100.00;100839.00;6030409;23;21793;-67
2023/03/15 02:57:15;;;;;;;3.25;3.05;;;;;;;1.28;100.00;100818.53;6058368;23;20096;-67
2023/03/15 02:59:42;;;;;;;3.10;2.95;;;;;;;1.08;100.00;100770.50;6053507;23;20031;-67
2023/03/15 03:02:13;;;;;;;3.03;2.92;;;;;;;1.45;100.00;100837.28;6029637;23;20083;-67
2023/03/15 03:04:40;;;;;;;3.20;3.10;;;;;;;1.04;100.00;100766.25;6025698;23;20469;-66
2023/03/15 03:07:07;;;;;;;3.40;3.30;;;;;;;1.45;100.00;100852.81;6034602;23;20026;-67
2023/03/15 03:09:33;;;;;;;2.90;2.80;;;;;;;1.47;100.00;100866.56;6041250;23;20131;-67
2023/03/15 03:12:00;;;;;;;3.13;3.00;;;;;;;1.31;100.00;100801.25;6055756;23;20046;-67
2023/03/15 03:14:26;;;;;;;2.83;2.72;;;;;;;1.42;100.00;100839.06;6059320;23;20092;-67
2023/03/15 03:16:52;;;;;;;3.00;2.90;;;;;;;1.38;100.00;100854.63;6029878;23;20042;-67
2023/03/15 03:19:19;;;;;;;3.40;3.00;;;;;;;0.97;100.00;100796.50;6055675;23;20067;-66
2023/03/15 03:21:45;;;;;;;2.85;2.75;;;;;;;1.37;100.00;100862.41;6052201;23;20036;-67
2023/03/15 03:24:14;;;;;;;2.95;2.85;;;;;;;0.90;100.00;100789.69;6026983;23;20034;-67
2023/03/15 03:26:44;;;;;;;3.30;3.10;;;;;;;0.78;100.00;100770.00;6056076;23;20034;-67
2023/03/15 03:29:15;;;;;;;3.38;3.17;;;;;;;0.95;100.00;100807.72;6050415;23;20422;-67
2023/03/15 03:31:43;;;;;;;3.50;3.30;;;;;;;1.19;100.00;100863.44;6055158;23;20027;-66
2023/03/15 03:34:13;;;;;;;2.80;2.70;;;;;;;-0.29;100.00;100683.25;6056054;23;21752;-67
2023/03/15 03:36:40;;;;;;;2.80;2.70;;;;;;;0.74;100.00;100781.25;6029310;23;20034;-66
2023/03/15 03:39:07;;;;;;;3.20;3.00;;;;;;;0.54;100.00;100729.81;6039774;23;20030;-67
2023/03/15 03:41:33;;;;;;;3.63;2.90;;;;;;;1.10;100.00;100817.03;6052574;23;20037;-66
2023/03/15 03:44:00;;;;;;;2.75;2.65;;;;;;;1.45;100.00;100876.09;6027607;23;20018;-67
2023/03/15 03:46:27;;;;;;;3.53;3.35;;;;;;;1.05;100.00;100809.31;6053853;23;20081;-68
2023/03/15 03:48:54;;;;;;;3.50;3.20;;;;;;;1.11;100.00;100832.50;6027666;23;20030;-69
2023/03/15 03:51:20;;;;;;;2.88;2.78;;;;;;;1.27;100.00;100868.53;6055487;23;20089;-67
2023/03/15 03:53:47;;;;;;;3.45;3.25;;;;;;;1.17;100.00;100858.28;6025329;23;20096;-66
2023/03/15 03:56:13;;;;;;;3.22;3.13;;;;;;;0.81;100.00;100809.59;6051683;23;20006;-67
2023/03/15 03:58:40;;;;;;;2.97;2.88;;;;;;;1.26;100.00;100890.09;6039285;23;20054;-67
2023/03/15 04:01:06;;;;;;;2.70;2.60;;;;;;;1.32;100.00;100884.84;6026866;23;20084;-67
2023/03/15 04:03:33;;;;;;;3.08;2.88;;;;;;;0.95;100.00;100826.66;6056189;23;20078;-67
2023/03/15 04:05:59;;;;;;;3.75;3.45;;;;;;;0.72;100.00;100792.44;6030017;23;20525;-68
2023/03/15 04:08:26;;;;;;;2.88;2.78;;;;;;;1.29;100.00;100892.66;6057053;23;20034;-67
2023/03/15 04:10:55;;;;;;;3.33;3.20;;;;;;;0.79;100.00;100825.94;6049863;23;20694;-68
2023/03/15 04:13:23;;;;;;;3.20;3.00;;;;;;;0.84;100.00;100832.78;6055892;23;20520;-67
2023/03/15 04:15:50;;;;;;;3.35;3.25;;;;;;;1.36;100.00;100912.38;6053457;23;20030;-68
2023/03/15 04:18:17;;;;;;;3.03;2.92;;;;;;;0.88;100.00;100856.03;6030445;23;20454;-68
2023/03/15 04:20:47;;;;;;;3.35;3.25;;;;;;;-0.07;100.00;100749.25;6028053;23;20122;-67
2023/03/15 04:23:14;;;;;;;3.00;2.90;;;;;;;1.01;100.00;100916.19;6051238;23;20030;-67
2023/03/15 04:25:41;;;;;;;2.85;2.75;;;;;;;-0.06;100.00;100765.59;6054679;23;20030;-68
2023/03/15 04:28:11;;;;;;;3.15;2.97;;;;;;;0.66;100.00;100908.72;6030143;23;20688;-68
2023/03/15 04:30:38;;;;;;;2.63;2.53;;;;;;;0.61;100.00;100905.34;6058078;23;20052;-67
2023/03/15 04:33:04;;;;;;;2.80;2.70;;;;;;;0.43;100.00;100896.00;6052538;23;20010;-68
2023/03/15 04:35:33;;;;;;;2.70;2.60;;;;;;;0.32;100.00;100899.53;6056098;23;20022;-68
2023/03/15 04:38:01;;;;;;;2.60;2.50;;;;;;;-0.16;100.00;100844.78;6009999;23;20033;-67
2023/03/15 04:40:27;;;;;;;2.60;2.50;;;;;;;0.09;100.00;100876.44;6050065;23;20053;-68
2023/03/15 04:42:54;;;;;;;3.30;3.13;;;;;;;0.22;100.00;100899.56;6054065;23;20026;-67
2023/03/15 04:45:22;;;;;;;2.70;2.60;;;;;;;0.25;100.00;100900.41;6030233;23;20046;-67
2023/03/15 04:47:50;;;;;;;3.10;3.00;;;;;;;-0.42;100.00;100798.50;6053878;23;20030;-68
2023/03/15 04:50:17;;;;;;;2.70;2.60;;;;;;;-0.31;100.00;100808.75;6043704;23;20034;-68
2023/03/15 04:52:46;;;;;;;2.72;2.60;;;;;;;0.33;100.00;100911.56;6057567;23;20041;-68
2023/03/15 04:55:13;;;;;;;3.80;3.60;;;;;;;0.30;100.00;100909.00;6056397;23;20045;-68
2023/03/15 04:57:39;;;;;;;2.80;2.60;;;;;;;-0.55;100.00;100789.13;6033105;23;20083;-67
2023/03/15 05:00:08;;;;;;;2.60;2.50;;;;;;;0.08;100.00;100881.59;6003358;23;20031;-66
2023/03/15 05:02:40;;;;;;;2.65;2.55;;;;;;;0.30;100.00;100921.91;6028464;23;20025;-67
2023/03/15 05:05:11;;;;;;;2.80;2.70;;;;;;;0.30;100.00;100921.91;6052001;23;20440;-67
2023/03/15 05:07:38;;;;;;;3.58;3.38;;;;;;;0.34;100.00;100918.44;6036799;23;20057;-67
2023/03/15 05:10:05;;;;;;;3.00;2.80;;;;;;;0.30;100.00;100909.00;6055935;23;20022;-67
2023/03/15 05:12:35;;;;;;;4.40;2.92;;;;;;;0.46;100.00;100927.84;6025062;23;20023;-68
2023/03/15 05:15:02;;;;;;;2.70;2.60;;;;;;;0.41;100.00;100928.72;6052792;23;20030;-67
2023/03/15 05:17:28;;;;;;;2.63;2.53;;;;;;;0.41;100.00;100933.91;6060451;23;20022;-68
2023/03/15 05:19:57;;;;;;;2.95;2.85;;;;;;;0.00;100.00;100861.03;6037875;23;20032;-68
2023/03/15 05:22:24;;;;;;;2.95;2.85;;;;;;;0.50;100.00;100946.72;6051126;23;20088;-68
2023/03/15 05:24:52;;;;;;;3.28;3.08;;;;;;;0.54;100.00;100949.28;6054087;23;20026;-68
2023/03/15 05:27:19;;;;;;;2.88;2.78;;;;;;;0.56;100.00;100960.47;6032153;23;20090;-67
2023/03/15 05:29:46;;;;;;;2.88;2.75;;;;;;;0.14;100.00;100885.03;6057704;23;20402;-67
2023/03/15 05:32:12;;;;;;;3.35;3.25;;;;;;;0.61;100.00;100967.31;6056704;23;20077;-67
2023/03/15 05:34:39;;;;;;;2.95;2.85;;;;;;;0.64;100.00;100968.13;6055058;23;20124;-67
2023/03/15 05:37:05;;;;;;;3.10;3.00;;;;;;;0.44;100.00;100941.59;6013954;23;20014;-67
2023/03/15 05:39:33;;;;;;;3.90;3.50;;;;;;;0.21;100.00;100901.31;6072929;23;20050;-67
2023/03/15 05:42:00;;;;;;;3.08;2.97;;;;;;;0.69;100.00;100981.88;6032083;23;20351;-67
2023/03/15 05:44:29;;;;;;;3.10;3.00;;;;;;;0.69;100.00;100981.03;6056120;23;20026;-67
2023/03/15 05:46:56;;;;;;;3.25;3.15;;;;;;;0.68;100.00;100979.31;6001210;23;20023;-67
2023/03/15 05:49:22;;;;;;;3.08;2.97;;;;;;;0.66;100.00;100987.09;6051723;23;20057;-68
2023/03/15 05:51:49;;;;;;;3.33;3.22;;;;;;;0.71;100.00;100992.22;6034948;23;20082;-67
2023/03/15 05:54:15;;;;;;;3.42;3.13;;;;;;;0.71;100.00;100998.22;6051970;23;20038;-67
2023/03/15 05:56:41;;;;;;;2.80;2.70;;;;;;;0.15;100.00;100902.19;6029740;23;20586;-67
2023/03/15 05:59:08;;;;;;;2.70;2.60;;;;;;;-0.47;100.00;100813.97;6059486;23;20050;-67
2023/03/15 06:01:34;;;;;;;3.72;3.42;;;;;;;0.87;100.00;101017.06;6027763;23;20039;-67
2023/03/15 06:04:01;;;;;;;5.30;4.38;;;;;;;0.45;100.00;100951.94;6053751;23;20025;-68
2023/03/15 06:06:27;;;;;;;3.20;3.08;;;;;;;0.23;100.00;100911.63;6048540;23;20105;-68
2023/03/15 06:08:54;;;;;;;2.92;2.83;;;;;;;1.02;100.00;101023.00;6054172;23;20692;-68
2023/03/15 06:11:20;;;;;;;2.78;2.67;;;;;;;0.80;100.00;100981.81;6046050;23;20048;-68
2023/03/15 06:13:47;;;;;;;3.80;3.50;;;;;;;0.99;100.00;101029.06;6025348;23;20054;-68
2023/03/15 06:16:13;;;;;;;3.47;3.25;;;;;;;1.02;100.00;101026.44;6054440;23;20015;-68
2023/03/15 06:18:40;;;;;;;3.47;3.33;;;;;;;1.08;100.00;101025.53;6058377;23;20042;-68
2023/03/15 06:21:06;;;;;;;3.03;2.90;;;;;;;0.99;100.00;100998.88;6033718;23;20100;-68
2023/03/15 06:23:32;;;;;;;3.30;3.08;;;;;;;0.74;100.00;100959.47;6039337;23;20041;-69
2023/03/15 06:25:59;;;;;;;3.17;3.05;;;;;;;1.25;100.00;101028.00;6052820;23;20718;-68
2023/03/15 06:28:25;;;;;;;2.90;2.70;;;;;;;1.39;100.00;101033.91;6024473;23;20114;-68
2023/03/15 06:30:52;;;;;;;4.15;3.88;;;;;;;1.43;100.00;101033.00;6056578;23;20621;-68
2023/03/15 06:33:18;;;;;;;3.88;3.38;;;;;;;1.16;100.00;100979.78;6032926;23;20552;-68
2023/03/15 06:35:45;;;;;;;3.28;3.10;;;;;;;1.41;100.00;101029.56;6031337;23;20046;-68
2023/03/15 06:38:13;;;;;;;3.00;2.72;;;;;;;1.09;100.00;100962.63;6056732;23;20038;-68
2023/03/15 06:40:43;;;;;;;3.13;3.03;;;;;;;1.42;100.00;101013.16;6055649;23;20034;-70
2023/03/15 06:43:16;;;;;;;5.50;5.13;;;;;;;1.29;100.00;101001.25;6053914;23;20073;-68
2023/03/15 06:45:46;;;;;;;4.18;3.97;;;;;;;1.65;100.00;101061.25;6029394;23;20605;-67
2023/03/15 06:48:13;;;;;;;3.22;3.03;;;;;;;0.87;100.00;100943.88;6057186;23;20038;-69
2023/03/15 06:50:40;;;;;;;3.60;3.40;;;;;;;1.66;100.00;101065.53;6053318;23;20515;-68
2023/03/15 06:53:13;;;;;;;3.88;3.50;;;;;;;1.77;100.00;101081.84;6059272;23;20096;-68
2023/03/15 06:55:39;;;;;;;4.28;3.95;;;;;;;1.74;100.00;101072.34;6056175;23;20088;-68
2023/03/15 06:58:06;;;;;;;3.67;3.47;;;;;;;1.65;100.00;101074.19;6056894;23;20033;-68
2023/03/15 07:00:32;;;;;;;3.58;3.22;;;;;;;1.59;100.00;101085.44;6057272;23;20038;-68
2023/03/15 07:02:58;;;;;;;3.10;3.00;;;;;;;1.59;100.00;101090.63;6057113;23;20037;-68
2023/03/15 07:05:25;;;;;;;2.90;2.80;;;;;;;0.89;100.00;100983.47;6036986;23;20030;-68
2023/03/15 07:07:51;;;;;;;3.08;2.97;;;;;;;1.57;100.00;101111.31;6058770;23;20053;-69
2023/03/15 07:10:20;;;;;;;3.95;3.65;;;;;;;1.52;100.00;101110.47;6057938;23;20026;-68
2023/03/15 07:12:46;;;;;;;4.25;3.88;;;;;;;1.31;100.00;101077.06;6055479;23;20144;-69
2023/03/15 07:15:13;;;;;;;3.83;3.63;;;;;;;1.41;100.00;101101.97;6051915;23;20023;-66
2023/03/15 07:17:42;;;;;;;4.00;3.78;;;;;;;1.56;100.00;101126.84;6038403;23;20081;-69
2023/03/15 07:20:09;;;;;;;4.25;3.95;;;;;;;1.67;100.00;101131.94;6053510;23;20492;-67
2023/03/15 07:22:36;;;;;;;3.97;3.67;;;;;;;1.85;100.00;101134.38;6037811;23;20037;-68
2023/03/15 07:25:03;;;;;;;3.92;3.63;;;;;;;1.84;100.00;101137.81;6055432;23;20046;-68
2023/03/15 07:27:30;;;;;;;3.42;3.22;;;;;;;1.84;100.00;101137.81;6057165;23;20607;-69
2023/03/15 07:29:56;;;;;;;5.25;4.72;;;;;;;1.79;100.00;101140.44;6048981;23;20053;-69
2023/03/15 07:32:23;;;;;;;3.70;3.50;;;;;;;1.84;100.00;101152.50;6057897;23;20030;-68
2023/03/15 07:34:56;;;;;;;4.38;4.13;;;;;;;1.98;100.00;101156.69;6028829;23;20702;-67
2023/03/15 07:37:23;;;;;;;3.97;3.67;;;;;;;2.07;100.00;101160.06;6053723;23;20582;-67
2023/03/15 07:39:49;;;;;;;4.65;4.32;;;;;;;2.11;100.00;101172.94;6030290;23;20088;-68
2023/03/15 07:42:16;;;;;;;3.60;3.40;;;;;;;1.64;100.00;101104.34;6049926;23;20026;-67
2023/03/15 07:44:42;;;;;;;4.10;3.90;;;;;;;1.52;100.00;101105.31;6001068;23;20037;-68
2023/03/15 07:47:09;;;;;;;4.85;4.55;;;;;;;1.89;100.00;101142.97;6059400;23;20067;-67
2023/03/15 07:49:41;;;;;;;3.65;3.45;;;;;;;1.23;100.00;101003.88;6030466;23;20034;-68
2023/03/15 07:52:08;;;;;;;4.93;3.88;;;;;;;2.36;100.00;101183.91;6053509;23;20014;-69
2023/03/15 07:54:34;;;;;;;5.20;4.10;;;;;;;2.55;100.00;101182.00;6029998;23;20778;-67
2023/03/15 07:57:01;;;;;;;4.30;4.00;;;;;;;2.67;100.00;101169.78;6056289;23;20021;-67
2023/03/15 07:59:27;;;;;;;5.05;4.63;;;;;;;2.45;100.00;101162.25;6044057;23;20045;-67
2023/03/15 08:01:54;;;;;;;6.47;5.88;;;;;;;2.73;100.00;101206.84;6027043;23;20290;-68
2023/03/15 08:04:20;;;;;;;8.65;7.93;;;;;;;2.64;100.00;101180.16;6042679;23;20022;-69
2023/03/15 08:06:47;;;;;;;4.25;4.05;;;;;;;2.72;100.00;101206.84;6028608;23;20095;-68
2023/03/15 08:09:13;;;;;;;4.50;4.20;;;;;;;2.50;100.00;101183.75;6024931;23;20025;-68
2023/03/15 08:11:40;;;;;;;4.70;4.40;;;;;;;2.28;100.00;101158.97;6024029;23;20110;-69
2023/03/15 08:14:09;;;;;;;5.20;4.70;;;;;;;2.83;100.00;101206.72;6035094;23;20017;-68
2023/03/15 08:16:35;;;;;;;4.68;4.38;;;;;;;2.88;100.00;101220.47;6028869;23;20057;-68
2023/03/15 08:19:02;;;;;;;4.63;4.35;;;;;;;2.72;100.00;101168.81;6029918;23;20026;-68
2023/03/15 08:21:28;;;;;;;3.47;3.33;;;;;;;2.78;100.00;101220.59;6026097;23;20011;-68
2023/03/15 08:24:26;;;;;;;13.52;12.63;;;;;;;3.02;100.00;101225.50;6014057;23;20428;-67
2023/03/15 08:27:09;;;;;;;7.10;4.13;;;;;;;2.95;100.00;101227.31;6046294;23;20090;-69
2023/03/15 08:29:36;;;;;;;4.18;3.78;;;;;;;3.04;100.00;101224.59;6029187;23;20126;-69
2023/03/15 08:32:02;;;;;;;4.28;3.88;;;;;;;3.34;100.00;101232.88;6050264;23;20026;-67
2023/03/15 08:34:31;;;;;;;5.25;4.82;;;;;;;3.08;100.00;101158.00;6052257;23;20030;-67
2023/03/15 08:36:57;;;;;;;5.72;4.63;;;;;;;3.36;100.00;101236.28;6046169;23;20031;-70
2023/03/15 08:39:24;;;;;;;4.45;4.15;;;;;;;2.23;100.00;101052.84;6062236;23;20042;-67
2023/03/15 08:41:50;;;;;;;3.80;3.60;;;;;;;3.23;100.00;101175.97;6027121;23;20023;-68
2023/03/15 08:44:17;;;;;;;5.40;3.65;;;;;;;3.20;100.00;101184.63;6058448;23;20512;-69
2023/03/15 08:46:43;;;;;;;3.40;3.20;;;;;;;3.78;100.00;101258.16;6025616;23;22034;-67
2023/03/15 08:49:10;;;;;;;4.13;3.83;;;;;;;3.74;100.00;101264.28;6035411;23;20669;-67
2023/03/15 08:51:36;;;;;;;4.80;4.55;;;;;;;3.83;100.00;101252.94;6050694;23;20722;-67
2023/03/15 08:54:04;;;;;;;4.20;3.92;;;;;;;3.94;100.00;101276.13;6034822;23;20045;-67
2023/03/15 08:56:31;;;;;;;3.95;3.65;;;;;;;4.12;100.00;101267.19;6048682;23;20491;-69
2023/03/15 08:58:58;;;;;;;3.95;3.75;;;;;;;4.42;100.00;101276.19;6035386;23;20551;-68
2023/03/15 09:01:24;;;;;;;5.15;4.72;;;;;;;4.40;100.00;101268.41;6053498;23;20054;-67
2023/03/15 09:03:51;;;;;;;3.38;3.28;;;;;;;4.03;100.00;101197.19;6024325;23;20022;-67
2023/03/15 09:06:17;;;;;;;4.65;4.28;;;;;;;3.53;100.00;101182.44;6050302;23;20027;-67
2023/03/15 09:08:43;;;;;;;3.75;3.55;;;;;;;4.26;100.00;101239.22;6057221;23;20033;-68
2023/03/15 09:11:10;;;;;;;4.07;3.88;;;;;;;3.86;100.00;101151.59;6062098;23;20024;-67
2023/03/15 09:13:36;;;;;;;3.83;3.63;;;;;;;4.45;100.00;101213.78;6025826;23;20030;-68
2023/03/15 09:16:03;;;;;;;3.63;3.42;;;;;;;4.15;100.00;101202.19;6027491;23;20078;-67
2023/03/15 09:18:29;;;;;;;3.90;3.70;;;;;;;4.25;100.00;101214.16;6025704;23;20038;-66
2023/03/15 09:20:56;;;;;;;4.45;4.15;;;;;;;4.25;100.00;101174.28;6051298;23;20235;-67
2023/03/15 09:23:23;;;;;;;3.75;3.55;;;;;;;4.58;100.00;101199.66;6058169;23;21114;-66
2023/03/15 09:25:49;;;;;;;4.40;4.13;;;;;;;4.95;100.00;101224.94;6024400;23;20027;-66
2023/03/15 09:28:16;;;;;;;4.03;3.72;;;;;;;4.31;100.00;101098.84;6021943;23;20037;-68
2023/03/15 09:30:42;;;;;;;5.25;4.85;;;;;;;4.87;100.00;101122.81;6021095;23;20093;-75
2023/03/15 09:33:13;;;;;;;4.45;4.05;;;;;;;5.48;99.58;101182.16;6049842;23;20010;-72
2023/03/15 09:35:40;;;;;;;5.07;4.55;;;;;;;3.93;95.79;100913.47;6024996;23;20057;-75
2023/03/15 09:38:07;;;;;;;5.38;4.38;;;;;;;5.22;93.14;101121.16;6052265;23;20515;-75
2023/03/15 09:40:38;;;;;;;7.38;4.25;;;;;;;5.09;94.83;101117.13;6033267;23;20034;-79
2023/03/15 09:43:18;;;;;;;4.28;4.07;;;;;;;5.30;94.02;101137.44;6030281;23;20097;-68
2023/03/15 09:45:56;;;;;;;4.70;4.40;;;;;;;5.47;92.34;101137.06;6049061;23;20032;-73
2023/03/15 09:48:32;;;;;;;4.07;3.88;;;;;;;5.76;90.25;101128.53;6054045;23;20038;-76
2023/03/15 09:51:27;;;;;;;4.43;4.05;;;;;;;4.53;86.60;100946.78;6025362;23;20146;-72
2023/03/15 09:53:59;;;;;;;4.07;3.88;;;;;;;4.65;87.01;101015.84;6051900;23;20371;-71
2023/03/15 09:56:31;;;;;;;4.45;4.15;;;;;;;4.28;85.59;100969.84;6051138;23;20034;-75
2023/03/15 09:59:00;;;;;;;4.25;4.05;;;;;;;5.20;84.66;101052.69;6031566;23;20036;-70
2023/03/15 10:01:31;;;;;;;4.00;3.80;;;;;;;5.47;83.64;101056.38;6055501;23;20018;-68
2023/03/15 10:04:04;;;;;;;4.78;4.47;;;;;;;5.91;82.13;101037.84;6056892;23;20693;-72
2023/03/15 10:06:34;;;;;;;11.73;3.55;;;;;;;5.67;76.85;100916.97;6031128;23;20025;-71
2023/03/15 10:09:12;;;;;;;4.70;4.30;;;;;;;6.65;72.52;100932.28;6028234;23;20041;-76
2023/03/15 10:12:03;;;;;;;3.95;3.75;;;;;;;7.02;72.02;100918.06;6046753;23;20022;-73
2023/03/15 10:14:35;;;;;;;3.90;3.70;;;;;;;7.16;71.94;100922.81;6023160;23;20426;-73
2023/03/15 10:17:10;;;;;;;6.18;4.65;;;;;;;5.99;72.47;100838.81;6050557;23;20018;-72
2023/03/15 10:19:44;;;;;;;4.20;4.00;;;;;;;5.36;73.15;100798.97;6026474;23;20037;-72
2023/03/15 10:22:37;;;;;;;10.10;3.72;;;;;;;5.94;73.37;100892.75;6051317;23;20010;-71
2023/03/15 10:25:04;;;;;;;3.50;3.40;;;;;;;6.35;73.94;100940.19;6051252;23;20038;-71
2023/03/15 10:27:40;;;;;;;4.10;3.90;;;;;;;6.29;74.04;100911.69;6027932;23;20010;-73
2023/03/15 10:30:34;;;;;;;4.22;3.97;;;;;;;5.66;71.66;100825.00;6023071;23;20626;-76
2023/03/15 10:33:14;;;;;;;4.38;4.13;;;;;;;6.90;72.31;100936.72;6032892;23;20051;-77
2023/03/15 10:35:41;;;;;;;4.10;3.80;;;;;;;6.45;70.31;100762.63;6052640;23;20034;-76
2023/03/15 10:38:14;;;;;;;4.72;4.10;;;;;;;7.10;68.78;100784.69;6056159;23;20685;-77
2023/03/15 10:40:49;;;;;;;4.57;4.18;;;;;;;7.64;66.84;100793.09;6031211;23;20026;-77
2023/03/15 10:43:20;;;;;;;7.95;4.03;;;;;;;8.13;65.06;100805.09;6022932;23;20017;-78
2023/03/15 10:46:04;;;;;;;4.32;4.13;;;;;;;7.05;62.47;100564.81;6054730;23;20071;-79
2023/03/15 10:48:33;;;;;;;3.88;3.67;;;;;;;6.40;62.74;100504.72;6025358;23;20723;-76
2023/03/15 10:51:04;;;;;;;11.93;4.88;;;;;;;7.83;64.74;100756.69;6052929;23;20018;-75
2023/03/15 10:53:30;;;;;;;4.07;3.78;;;;;;;7.36;64.66;100737.59;6056086;23;20510;-76
2023/03/15 10:56:04;;;;;;;6.93;4.57;;;;;;;7.38;65.33;100721.88;6033066;23;20864;-76
2023/03/15 10:58:45;;;;;;;5.20;4.30;;;;;;;7.01;67.60;100745.88;6061394;23;20043;-76
2023/03/15 11:01:24;;;;;;;4.90;4.60;;;;;;;6.34;68.75;100703.03;6033248;23;20128;-77
2023/03/15 11:04:17;;;;;;;4.43;4.05;;;;;;;7.57;67.07;100844.75;6057635;23;20029;-76
2023/03/15 11:07:02;;;;;;;4.53;4.22;;;;;;;8.34;65.53;100832.16;6055000;23;20022;-72
2023/03/15 11:09:44;;;;;;;4.15;3.85;;;;;;;8.83;62.27;100763.00;6050660;23;20101;-73
2023/03/15 11:12:25;;;;;;;4.50;4.10;;;;;;;9.07;60.48;100699.09;6031138;23;20766;-74
2023/03/15 11:14:57;;;;;;;4.22;4.03;;;;;;;8.74;57.65;100549.69;6053962;23;20033;-76
2023/03/15 11:17:31;;;;;;;4.00;3.80;;;;;;;7.43;60.01;100524.09;6028902;23;20575;-72
2023/03/15 11:20:12;;;;;;;6.00;4.60;;;;;;;7.15;61.17;100556.53;6025891;23;20045;-70
2023/03/15 11:22:39;;;;;;;4.15;3.95;;;;;;;6.75;62.93;100576.38;6056136;23;20033;-70
2023/03/15 11:25:16;;;;;;;5.13;4.65;;;;;;;7.51;64.20;100725.69;6030784;23;20053;-70
2023/03/15 11:27:45;;;;;;;3.90;3.70;;;;;;;7.81;62.64;100714.94;6029526;23;20027;-70
2023/03/15 11:30:14;;;;;;;4.35;4.15;;;;;;;7.39;62.08;100624.34;6059965;23;20081;-74
2023/03/15 11:32:42;;;;;;;4.10;3.90;;;;;;;6.89;58.91;100449.78;6026265;23;20496;-73
2023/03/15 11:35:18;;;;;;;4.57;4.18;;;;;;;7.38;60.12;100568.69;6059696;23;20092;-73